Time;durP1;ratioP1;P1;durP2;ratioP2;P2;SDS_P1;SDS_P2;PMS_P1;PMS_P2;Temp;Humidity;BMP_temperature;BMP_pressure;BME280_temperature;BME280_humidity;BME280_pressure;Samples;Min_cycle;Max_cycle;Signal;HPM_P1;HPM_P2
2021/05/28 00:00:32;;;;;;;0.50;0.40;;;23.40;52.20;;;;;;5071536;28;20028;-77
2021/05/28 00:02:59;;;;;;;0.20;0.20;;;23.50;51.70;;;;;;5071646;28;20086;-78
2021/05/28 00:05:26;;;;;;;0.35;0.28;;;23.50;51.60;;;;;;5068554;28;20017;-77
2021/05/28 00:07:52;;;;;;;0.30;0.30;;;23.50;51.10;;;;;;5058191;28;20025;-78
2021/05/28 00:10:18;;;;;;;0.32;0.30;;;23.70;50.40;;;;;;5072067;28;20069;-74
2021/05/28 00:12:45;;;;;;;0.30;0.30;;;23.40;51.30;;;;;;5073657;28;20434;-76
2021/05/28 00:15:13;;;;;;;0.30;0.30;;;23.30;51.50;;;;;;5067054;28;20024;-76
2021/05/28 00:17:40;;;;;;;0.57;0.30;;;23.20;51.90;;;;;;5063113;28;20517;-76
2021/05/28 00:20:10;;;;;;;0.20;0.20;;;23.10;52.70;;;;;;5059415;28;20028;-76
2021/05/28 00:22:37;;;;;;;0.30;0.30;;;23.40;52.00;;;;;;5045765;28;20456;-76
2021/05/28 00:25:04;;;;;;;0.20;0.20;;;23.50;51.30;;;;;;5062104;28;20025;-77
2021/05/28 00:27:30;;;;;;;0.30;0.30;;;23.40;51.90;;;;;;5065700;28;20108;-76
2021/05/28 00:30:00;;;;;;;0.30;0.30;;;23.30;51.90;;;;;;5072481;28;20032;-77
2021/05/28 00:32:27;;;;;;;0.20;0.20;;;23.40;51.60;;;;;;5072423;28;20032;-76
2021/05/28 00:34:54;;;;;;;0.50;0.30;;;23.50;51.50;;;;;;5068196;28;20086;-76
2021/05/28 00:37:21;;;;;;;0.30;0.30;;;23.50;51.50;;;;;;5080193;28;20072;-75
2021/05/28 00:39:48;;;;;;;0.30;0.30;;;23.40;51.70;;;;;;5068756;28;20036;-76
2021/05/28 00:42:14;;;;;;;0.30;0.30;;;23.40;51.10;;;;;;5068904;28;20356;-76
2021/05/28 00:44:41;;;;;;;0.32;0.32;;;23.50;51.10;;;;;;5068563;28;20062;-75
2021/05/28 00:47:08;;;;;;;0.40;0.30;;;23.50;50.70;;;;;;5062888;28;20024;-76
2021/05/28 00:49:35;;;;;;;0.30;0.30;;;23.20;51.60;;;;;;5068058;28;20029;-77
2021/05/28 00:52:02;;;;;;;0.52;0.32;;;23.10;52.20;;;;;;5062073;28;20104;-76
2021/05/28 00:54:30;;;;;;;0.30;0.30;;;23.20;51.90;;;;;;5064195;28;20036;-77
2021/05/28 00:56:57;;;;;;;0.30;0.30;;;23.30;51.70;;;;;;5064371;28;20047;-76
2021/05/28 00:59:25;;;;;;;0.30;0.30;;;23.20;51.90;;;;;;5063694;28;20040;-77
2021/05/28 01:01:52;;;;;;;0.30;0.30;;;23.20;52.00;;;;;;5063939;28;20081;-77
2021/05/28 01:04:18;;;;;;;0.20;0.20;;;23.20;51.50;;;;;;5066990;28;20116;-77
2021/05/28 01:06:45;;;;;;;0.40;0.40;;;23.20;51.60;;;;;;5069342;28;20033;-77
2021/05/28 01:09:11;;;;;;;0.30;0.30;;;23.20;51.20;;;;;;5069744;28;20034;-77
2021/05/28 01:11:38;;;;;;;0.30;0.30;;;23.20;51.80;;;;;;5065995;28;20036;-76
2021/05/28 01:14:05;;;;;;;0.65;0.32;;;23.10;52.10;;;;;;5060044;28;20092;-75
2021/05/28 01:16:33;;;;;;;0.30;0.30;;;23.20;52.40;;;;;;5073628;28;20397;-76
2021/05/28 01:18:59;;;;;;;0.30;0.30;;;23.10;52.20;;;;;;5069279;28;20054;-76
2021/05/28 01:21:27;;;;;;;0.30;0.30;;;23.00;52.20;;;;;;5065453;28;20460;-74
2021/05/28 01:23:54;;;;;;;0.22;0.22;;;23.00;52.30;;;;;;5067674;28;20055;-76
2021/05/28 01:26:20;;;;;;;0.38;0.38;;;23.10;52.20;;;;;;5069642;28;20024;-76
2021/05/28 01:28:47;;;;;;;0.30;0.30;;;23.00;52.40;;;;;;5046472;28;20538;-77
2021/05/28 01:31:14;;;;;;;0.30;0.30;;;23.10;52.10;;;;;;5070512;28;20515;-76
2021/05/28 01:33:42;;;;;;;0.40;0.40;;;23.00;52.40;;;;;;5062912;28;20100;-76
2021/05/28 01:36:10;;;;;;;0.30;0.30;;;23.00;52.50;;;;;;5066315;28;20024;-76
2021/05/28 01:38:38;;;;;;;0.30;0.30;;;22.90;52.60;;;;;;5068785;28;20398;-76
2021/05/28 01:41:05;;;;;;;0.30;0.30;;;22.90;52.60;;;;;;5074014;28;20120;-76
2021/05/28 01:43:32;;;;;;;1.48;0.70;;;23.00;52.20;;;;;;5083615;28;20020;-77
2021/05/28 01:45:59;;;;;;;1.02;0.30;;;22.90;52.50;;;;;;5067795;28;20025;-76
2021/05/28 01:48:25;;;;;;;0.40;0.40;;;22.90;52.70;;;;;;5078009;28;20024;-78
2021/05/28 01:50:52;;;;;;;0.30;0.30;;;22.80;53.00;;;;;;5094035;28;20176;-79
2021/05/28 01:53:21;;;;;;;0.30;0.30;;;22.90;52.60;;;;;;5087941;28;20478;-77
2021/05/28 01:55:49;;;;;;;0.40;0.40;;;22.70;52.90;;;;;;5079375;28;20024;-76
2021/05/28 01:58:18;;;;;;;0.63;0.40;;;22.60;53.30;;;;;;5052820;28;20043;-76
2021/05/28 02:00:47;;;;;;;0.30;0.30;;;22.50;53.50;;;;;;5066906;28;20067;-78
2021/05/28 02:03:14;;;;;;;0.40;0.40;;;22.40;53.70;;;;;;5068646;28;20100;-77
2021/05/28 02:05:42;;;;;;;0.43;0.43;;;22.20;54.10;;;;;;5067227;28;20081;-78
2021/05/28 02:08:09;;;;;;;0.30;0.30;;;22.20;54.30;;;;;;5057722;28;20112;-78
2021/05/28 02:10:36;;;;;;;0.40;0.40;;;22.20;54.30;;;;;;5073460;28;20024;-76
2021/05/28 02:13:03;;;;;;;0.73;0.40;;;22.10;54.60;;;;;;5055543;28;20025;-77
2021/05/28 02:15:30;;;;;;;0.30;0.30;;;22.10;54.60;;;;;;5070241;28;20491;-76
2021/05/28 02:17:57;;;;;;;0.43;0.43;;;22.00;54.60;;;;;;5064970;28;20041;-76
2021/05/28 02:20:24;;;;;;;0.40;0.40;;;21.90;54.30;;;;;;5070047;28;20035;-77
2021/05/28 02:22:51;;;;;;;0.30;0.30;;;21.80;55.10;;;;;;5067666;28;20028;-76
2021/05/28 02:25:18;;;;;;;0.50;0.50;;;21.70;55.20;;;;;;5084193;28;20059;-76
2021/05/28 02:27:45;;;;;;;1.25;0.40;;;21.70;55.90;;;;;;5057858;28;20183;-77
2021/05/28 02:30:13;;;;;;;0.40;0.40;;;21.60;55.60;;;;;;5060691;28;20368;-77
2021/05/28 02:32:40;;;;;;;0.40;0.40;;;21.60;56.00;;;;;;5071249;28;20032;-77
2021/05/28 02:35:08;;;;;;;1.38;0.60;;;21.40;56.30;;;;;;5075172;28;20104;-77
2021/05/28 02:37:35;;;;;;;0.40;0.40;;;21.40;56.70;;;;;;5059933;28;20042;-77
2021/05/28 02:40:04;;;;;;;0.40;0.40;;;21.30;56.70;;;;;;5076925;28;20028;-78
2021/05/28 02:42:30;;;;;;;0.40;0.40;;;21.30;57.10;;;;;;5076752;28;20029;-77
2021/05/28 02:44:57;;;;;;;0.40;0.40;;;21.30;57.00;;;;;;5060586;28;20461;-76
2021/05/28 02:47:23;;;;;;;0.50;0.50;;;21.20;57.20;;;;;;5059239;28;20032;-78
2021/05/28 02:49:50;;;;;;;0.50;0.50;;;21.20;57.10;;;;;;5075502;28;20435;-78
2021/05/28 02:52:16;;;;;;;0.40;0.40;;;21.20;56.90;;;;;;5076840;28;20111;-77
2021/05/28 02:54:44;;;;;;;0.60;0.60;;;21.10;56.80;;;;;;5076395;28;20036;-75
2021/05/28 02:57:11;;;;;;;0.50;0.50;;;21.20;56.70;;;;;;5076849;28;20340;-77
2021/05/28 02:59:38;;;;;;;0.50;0.50;;;21.10;57.20;;;;;;5079802;28;20016;-78
2021/05/28 03:02:05;;;;;;;0.57;0.57;;;21.10;57.00;;;;;;5077966;28;20024;-76
2021/05/28 03:04:32;;;;;;;0.60;0.60;;;20.90;57.30;;;;;;5073971;28;20074;-78
2021/05/28 03:06:58;;;;;;;0.60;0.60;;;21.00;57.30;;;;;;5093736;28;20451;-76
2021/05/28 03:09:25;;;;;;;0.50;0.50;;;20.80;57.30;;;;;;5085718;28;20032;-77
2021/05/28 03:11:51;;;;;;;0.50;0.50;;;20.70;57.40;;;;;;5077392;28;20035;-76
2021/05/28 03:14:18;;;;;;;0.75;0.70;;;20.60;58.00;;;;;;5076898;28;20032;-76
2021/05/28 03:16:45;;;;;;;0.57;0.57;;;20.50;58.10;;;;;;5076566;28;20024;-76
2021/05/28 03:19:19;;;;;;;0.50;0.50;;;20.50;57.60;;;;;;5076349;28;20040;-76
2021/05/28 03:24:28;;;;;;;0.52;0.52;;;20.30;58.30;;;;;;5076272;28;20020;-76
2021/05/28 03:26:55;;;;;;;0.50;0.50;;;20.20;58.60;;;;;;5054672;28;20021;-76
2021/05/28 03:29:21;;;;;;;0.60;0.60;;;20.10;58.20;;;;;;5056249;28;20029;-76
2021/05/28 03:31:48;;;;;;;1.15;0.60;;;20.10;59.20;;;;;;5056274;28;20025;-77
2021/05/28 03:34:14;;;;;;;0.50;0.50;;;19.90;58.80;;;;;;5038388;28;20063;-77
2021/05/28 03:36:41;;;;;;;0.75;0.60;;;19.90;59.00;;;;;;5055741;28;20113;-74
2021/05/28 03:39:07;;;;;;;1.17;0.60;;;19.90;59.20;;;;;;5054031;28;20094;-76
2021/05/28 03:41:34;;;;;;;0.50;0.50;;;19.80;59.20;;;;;;5056479;28;20357;-76
2021/05/28 03:44:00;;;;;;;1.05;0.60;;;19.80;59.30;;;;;;5074018;28;20436;-76
2021/05/28 03:46:27;;;;;;;0.52;0.52;;;19.60;59.20;;;;;;5072470;28;20024;-76
2021/05/28 03:48:53;;;;;;;0.52;0.52;;;19.80;59.70;;;;;;5065605;28;20352;-76
2021/05/28 03:51:20;;;;;;;0.40;0.40;;;19.70;59.70;;;;;;5067416;28;20285;-76
2021/05/28 03:53:47;;;;;;;0.60;0.60;;;19.80;59.80;;;;;;5062216;28;20123;-76
2021/05/28 03:56:13;;;;;;;0.45;0.45;;;19.70;59.40;;;;;;5070864;28;20023;-77
2021/05/28 03:58:40;;;;;;;0.60;0.60;;;19.70;60.70;;;;;;5069631;28;20029;-76
2021/05/28 04:01:06;;;;;;;0.40;0.40;;;19.60;59.70;;;;;;5062318;28;20459;-76
2021/05/28 04:03:32;;;;;;;1.33;0.50;;;19.60;60.20;;;;;;5059156;28;20036;-77
2021/05/28 04:05:59;;;;;;;0.60;0.60;;;19.70;60.00;;;;;;5071383;28;20024;-78
2021/05/28 04:08:25;;;;;;;0.50;0.50;;;19.70;59.90;;;;;;5071379;28;20078;-76
2021/05/28 04:10:52;;;;;;;0.50;0.50;;;19.70;59.60;;;;;;5058734;28;20041;-76
2021/05/28 04:13:19;;;;;;;0.70;0.70;;;19.80;59.70;;;;;;5063168;28;20479;-76
2021/05/28 04:15:45;;;;;;;1.02;0.60;;;19.60;59.60;;;;;;5081023;28;20059;-76
2021/05/28 04:18:11;;;;;;;1.35;0.60;;;19.40;59.90;;;;;;5071530;28;20100;-76
2021/05/28 04:20:43;;;;;;;0.50;0.50;;;19.50;59.90;;;;;;5077442;28;20025;-76
2021/05/28 04:23:10;;;;;;;0.47;0.47;;;19.50;60.50;;;;;;5068921;28;20029;-76
2021/05/28 04:25:36;;;;;;;0.50;0.50;;;19.40;60.20;;;;;;5079100;28;20445;-76
2021/05/28 04:28:03;;;;;;;0.40;0.40;;;19.60;61.00;;;;;;5046004;28;20044;-77
2021/05/28 04:30:29;;;;;;;0.60;0.60;;;19.70;60.50;;;;;;5059086;28;20107;-77
2021/05/28 04:32:56;;;;;;;0.70;0.70;;;19.70;59.70;;;;;;5063372;28;20177;-77
2021/05/28 04:35:22;;;;;;;4.93;3.42;;;19.50;58.70;;;;;;5073598;28;20028;-77
2021/05/28 04:37:49;;;;;;;0.50;0.50;;;19.40;59.20;;;;;;5056959;28;20024;-76
2021/05/28 04:40:18;;;;;;;0.68;0.60;;;19.30;59.50;;;;;;5069108;28;20016;-76
2021/05/28 04:42:44;;;;;;;0.60;0.60;;;19.30;59.60;;;;;;5065714;28;20081;-77
2021/05/28 04:45:11;;;;;;;0.60;0.60;;;19.10;60.20;;;;;;5063760;28;20039;-76
2021/05/28 04:47:37;;;;;;;0.70;0.70;;;18.90;60.50;;;;;;5068201;28;20418;-76
2021/05/28 04:50:04;;;;;;;0.60;0.60;;;19.00;61.10;;;;;;5053909;28;20444;-76
2021/05/28 04:52:31;;;;;;;1.30;0.70;;;19.20;61.30;;;;;;5056947;28;20414;-77
2021/05/28 04:54:57;;;;;;;0.60;0.60;;;19.00;60.70;;;;;;5073835;28;20501;-76
2021/05/28 04:57:23;;;;;;;0.65;0.65;;;19.00;60.60;;;;;;5061997;28;20042;-76
2021/05/28 04:59:50;;;;;;;0.70;0.70;;;18.90;61.30;;;;;;5056646;28;20042;-76
2021/05/28 05:02:16;;;;;;;0.60;0.60;;;18.80;61.60;;;;;;5056026;28;20456;-77
2021/05/28 05:04:43;;;;;;;0.70;0.70;;;18.60;62.10;;;;;;5043621;28;20471;-77
2021/05/28 05:07:09;;;;;;;0.70;0.70;;;18.50;62.00;;;;;;5074464;28;20032;-76
2021/05/28 05:09:36;;;;;;;1.48;1.00;;;18.40;62.20;;;;;;5045496;28;20036;-77
2021/05/28 05:12:03;;;;;;;0.70;0.70;;;18.20;62.30;;;;;;5056650;28;20455;-77
2021/05/28 05:14:29;;;;;;;0.65;0.65;;;18.20;62.50;;;;;;5040020;28;20052;-77
2021/05/28 05:16:55;;;;;;;1.48;1.08;;;18.10;62.60;;;;;;5056234;28;20111;-77
2021/05/28 05:19:22;;;;;;;0.68;0.68;;;18.00;63.60;;;;;;5065865;28;20032;-77
2021/05/28 05:21:50;;;;;;;0.70;0.70;;;17.90;62.60;;;;;;5054128;28;20048;-76
2021/05/28 05:24:16;;;;;;;3.40;0.68;;;17.90;63.70;;;;;;5059861;28;20359;-76
2021/05/28 05:26:42;;;;;;;0.88;0.88;;;18.00;63.40;;;;;;5073903;28;20020;-76
2021/05/28 05:29:09;;;;;;;0.60;0.60;;;17.90;63.30;;;;;;5075633;28;20344;-78
2021/05/28 05:31:39;;;;;;;0.60;0.60;;;17.80;63.70;;;;;;5073938;28;20454;-78
2021/05/28 05:34:06;;;;;;;0.52;0.52;;;17.90;63.30;;;;;;5055476;28;20025;-77
2021/05/28 05:36:35;;;;;;;1.05;1.05;;;18.00;63.70;;;;;;5073619;28;20028;-76
2021/05/28 05:39:03;;;;;;;0.70;0.70;;;17.80;63.50;;;;;;5077116;28;20040;-77
2021/05/28 05:41:29;;;;;;;1.20;1.05;;;17.70;63.30;;;;;;5092873;28;20124;-76
2021/05/28 05:43:56;;;;;;;0.70;0.70;;;17.80;64.20;;;;;;5073058;28;20032;-76
2021/05/28 05:46:22;;;;;;;0.98;0.70;;;17.80;63.90;;;;;;5082238;28;20078;-76
2021/05/28 05:48:49;;;;;;;0.80;0.80;;;17.50;63.30;;;;;;5088876;28;20031;-75
2021/05/28 05:51:16;;;;;;;1.55;0.80;;;17.40;63.70;;;;;;5074848;28;20040;-76
2021/05/28 05:53:42;;;;;;;0.85;0.70;;;17.50;63.90;;;;;;5093058;28;20099;-76
2021/05/28 05:56:09;;;;;;;0.73;0.73;;;17.30;63.70;;;;;;5075368;28;20029;-77
2021/05/28 05:58:35;;;;;;;0.75;0.75;;;17.40;65.00;;;;;;5077125;28;20051;-76
2021/05/28 06:01:02;;;;;;;1.38;1.00;;;17.50;64.60;;;;;;5086250;28;20038;-75
2021/05/28 06:03:28;;;;;;;0.77;0.77;;;17.20;64.70;;;;;;5096857;28;20447;-76
2021/05/28 06:05:56;;;;;;;0.90;0.90;;;17.20;64.40;;;;;;5095722;28;20070;-76
2021/05/28 06:08:23;;;;;;;0.90;0.90;;;17.10;64.10;;;;;;5097287;28;20020;-75
2021/05/28 06:10:49;;;;;;;0.55;0.55;;;17.10;64.80;;;;;;5083674;28;20435;-75
2021/05/28 06:13:16;;;;;;;0.73;0.73;;;17.10;64.40;;;;;;5060124;28;20452;-75
2021/05/28 06:15:42;;;;;;;0.80;0.80;;;17.00;64.50;;;;;;5068501;28;20032;-75
2021/05/28 06:18:08;;;;;;;0.70;0.70;;;16.90;65.30;;;;;;5079236;28;20040;-76
2021/05/28 06:20:35;;;;;;;0.95;0.80;;;16.90;65.20;;;;;;5074777;28;20051;-75
2021/05/28 06:23:02;;;;;;;0.70;0.70;;;16.90;65.00;;;;;;5071225;28;20501;-76
2021/05/28 06:25:29;;;;;;;2.25;0.73;;;16.90;65.00;;;;;;5078336;28;20107;-75
2021/05/28 06:27:55;;;;;;;0.77;0.77;;;16.80;65.00;;;;;;5085181;28;20024;-76
2021/05/28 06:30:22;;;;;;;2.33;0.82;;;16.80;65.00;;;;;;5075947;28;20027;-76
2021/05/28 06:32:48;;;;;;;2.40;0.80;;;16.90;65.50;;;;;;5090310;28;20032;-76
2021/05/28 06:35:14;;;;;;;0.95;0.95;;;17.00;65.70;;;;;;5074570;28;20029;-76
2021/05/28 06:37:41;;;;;;;1.95;1.10;;;17.00;65.10;;;;;;5093858;28;20112;-75
2021/05/28 06:40:08;;;;;;;1.17;1.02;;;17.10;65.10;;;;;;5090301;28;20031;-75
2021/05/28 06:42:35;;;;;;;0.80;0.80;;;16.80;64.60;;;;;;5075577;28;20503;-76
2021/05/28 06:45:01;;;;;;;3.28;1.08;;;16.80;65.20;;;;;;5084858;28;20043;-75
2021/05/28 06:47:28;;;;;;;1.73;0.82;;;16.80;65.40;;;;;;5093097;28;20035;-75
2021/05/28 06:49:54;;;;;;;1.02;1.00;;;16.80;65.40;;;;;;5086309;28;20410;-76
2021/05/28 06:52:20;;;;;;;2.22;1.33;;;16.90;65.20;;;;;;5083014;28;20117;-76
2021/05/28 06:54:47;;;;;;;2.35;1.17;;;16.90;64.90;;;;;;5080936;28;20028;-76
2021/05/28 06:57:13;;;;;;;1.67;0.95;;;16.80;65.30;;;;;;5075630;28;20027;-76
2021/05/28 06:59:40;;;;;;;1.05;0.75;;;16.80;65.00;;;;;;5091770;28;20028;-76
2021/05/28 07:02:07;;;;;;;1.20;1.08;;;17.00;65.50;;;;;;5089142;28;20095;-76
2021/05/28 07:04:34;;;;;;;1.10;1.02;;;17.00;65.20;;;;;;5068683;28;20456;-76
2021/05/28 07:07:01;;;;;;;2.13;1.05;;;17.00;65.40;;;;;;5083089;28;20114;-76
2021/05/28 07:09:27;;;;;;;1.02;0.95;;;16.90;65.30;;;;;;5074125;28;20029;-76
2021/05/28 07:11:54;;;;;;;0.80;0.80;;;17.00;65.40;;;;;;5076274;28;20020;-76
2021/05/28 07:14:21;;;;;;;1.23;1.13;;;16.90;65.20;;;;;;5087267;28;20088;-76
2021/05/28 07:16:47;;;;;;;1.42;0.73;;;16.90;65.60;;;;;;5077559;28;20025;-76
2021/05/28 07:19:14;;;;;;;0.82;0.80;;;16.80;65.80;;;;;;5079185;28;20043;-77
2021/05/28 07:21:40;;;;;;;1.45;1.35;;;16.70;65.20;;;;;;5059461;28;20025;-76
2021/05/28 07:24:07;;;;;;;1.85;1.52;;;16.60;65.20;;;;;;5074637;28;20484;-76
2021/05/28 07:26:34;;;;;;;2.50;1.15;;;16.50;65.30;;;;;;5061754;28;20031;-76
2021/05/28 07:29:00;;;;;;;1.30;1.20;;;16.60;65.70;;;;;;5077432;28;20039;-76
2021/05/28 07:31:27;;;;;;;5.97;1.42;;;16.70;65.20;;;;;;5084633;28;20052;-79
2021/05/28 07:33:53;;;;;;;3.40;1.20;;;16.80;65.20;;;;;;5086382;28;20032;-77
2021/05/28 07:36:22;;;;;;;5.38;1.50;;;16.70;65.20;;;;;;5079574;28;20059;-77
2021/05/28 07:38:48;;;;;;;1.83;0.93;;;16.60;64.80;;;;;;5069608;28;20073;-76
2021/05/28 07:41:14;;;;;;;5.18;1.42;;;16.60;65.60;;;;;;5061040;28;20097;-76
2021/05/28 07:43:41;;;;;;;6.72;1.92;;;16.50;65.50;;;;;;5089996;28;20024;-76
2021/05/28 07:46:08;;;;;;;11.38;1.88;;;16.40;65.70;;;;;;5086938;28;20048;-76
2021/05/28 07:48:35;;;;;;;2.42;1.30;;;16.30;65.30;;;;;;5080389;28;20031;-77
2021/05/28 07:51:01;;;;;;;1.75;1.55;;;16.10;66.20;;;;;;5084661;28;20028;-76
2021/05/28 07:53:28;;;;;;;1.50;1.40;;;16.20;65.90;;;;;;5088786;28;20020;-77
2021/05/28 07:55:59;;;;;;;2.53;1.10;;;16.10;65.80;;;;;;5068952;28;20115;-76
2021/05/28 07:58:26;;;;;;;2.33;1.45;;;16.00;65.80;;;;;;5065371;28;20036;-77
2021/05/28 08:00:53;;;;;;;1.30;1.20;;;15.90;66.10;;;;;;5088148;28;20051;-76
2021/05/28 08:03:19;;;;;;;3.53;1.27;;;16.00;66.10;;;;;;5084508;28;20107;-76
2021/05/28 08:05:49;;;;;;;4.10;2.05;;;15.90;66.00;;;;;;5071101;28;20135;-77
2021/05/28 08:08:17;;;;;;;5.72;1.23;;;16.00;66.60;;;;;;5092260;28;20020;-77
2021/05/28 08:10:43;;;;;;;1.95;1.27;;;16.00;66.80;;;;;;5067354;28;21614;-76
2021/05/28 08:13:10;;;;;;;3.97;2.17;;;15.80;66.30;;;;;;5081017;28;20417;-76
2021/05/28 08:15:37;;;;;;;2.75;1.30;;;15.70;66.90;;;;;;5089688;28;20028;-76
2021/05/28 08:18:04;;;;;;;3.67;1.33;;;15.60;67.10;;;;;;5080967;28;20017;-76
2021/05/28 08:20:32;;;;;;;4.72;1.10;;;15.50;68.60;;;;;;5063106;28;20429;-76
2021/05/28 08:22:59;;;;;;;3.80;1.90;;;15.60;67.50;;;;;;5084992;28;20048;-76
2021/05/28 08:25:28;;;;;;;9.70;1.65;;;15.50;67.70;;;;;;5072000;28;20111;-76
2021/05/28 08:27:56;;;;;;;3.50;1.60;;;15.60;67.60;;;;;;5093487;28;20584;-76
2021/05/28 08:30:23;;;;;;;1.30;1.20;;;15.60;67.50;;;;;;5073737;28;20325;-76
2021/05/28 08:32:49;;;;;;;5.63;2.67;;;15.60;67.10;;;;;;5089129;28;20025;-76
2021/05/28 08:35:16;;;;;;;1.88;1.70;;;15.60;66.90;;;;;;5085199;28;20108;-76
2021/05/28 08:37:43;;;;;;;1.63;1.27;;;15.60;66.90;;;;;;5075068;28;20025;-76
2021/05/28 08:40:10;;;;;;;4.25;1.38;;;15.60;66.50;;;;;;5094169;28;20451;-76
2021/05/28 08:42:37;;;;;;;5.05;1.48;;;15.50;66.70;;;;;;5078388;28;20375;-76
2021/05/28 08:45:06;;;;;;;5.72;2.13;;;15.60;66.30;;;;;;5076329;28;20016;-76
2021/05/28 08:47:34;;;;;;;3.15;2.28;;;15.90;66.30;;;;;;5086088;28;20027;-76
2021/05/28 08:50:00;;;;;;;5.93;1.55;;;15.80;65.70;;;;;;5087296;28;20028;-76
2021/05/28 08:52:27;;;;;;;8.30;1.30;;;15.90;65.80;;;;;;5084477;28;20488;-76
2021/05/28 08:54:54;;;;;;;5.78;3.60;;;15.80;65.50;;;;;;5091830;28;20470;-76
2021/05/28 08:57:22;;;;;;;6.82;1.95;;;15.70;66.00;;;;;;5066524;28;20478;-76
2021/05/28 08:59:49;;;;;;;4.20;2.88;;;15.70;66.20;;;;;;5091922;28;20115;-76
2021/05/28 09:02:34;;;;;;;14.82;2.83;;;15.70;66.10;;;;;;5075887;28;20025;-76
2021/05/28 09:05:08;;;;;;;8.85;2.95;;;15.70;66.10;;;;;;5057402;28;20039;-75
2021/05/28 09:07:35;;;;;;;7.13;2.30;;;15.70;66.60;;;;;;5078998;28;20040;-75
2021/05/28 09:10:21;;;;;;;11.38;2.83;;;15.60;66.40;;;;;;5065830;28;20355;-76
2021/05/28 09:12:49;;;;;;;9.02;3.05;;;15.70;66.00;;;;;;5080260;28;20513;-76
2021/05/28 09:15:20;;;;;;;7.15;2.00;;;15.80;66.20;;;;;;5090106;28;20072;-76
2021/05/28 09:17:51;;;;;;;5.70;2.75;;;15.70;66.20;;;;;;5068270;28;20028;-76
2021/05/28 09:20:21;;;;;;;4.30;1.60;;;15.90;66.10;;;;;;5055728;28;20029;-75
2021/05/28 09:22:47;;;;;;;5.57;1.83;;;15.90;65.80;;;;;;5078183;28;20016;-76
2021/05/28 09:25:15;;;;;;;7.90;1.98;;;15.80;66.00;;;;;;5072364;28;20097;-76
2021/05/28 09:27:47;;;;;;;8.02;2.08;;;15.70;66.20;;;;;;5081547;28;20033;-76
2021/05/28 09:30:19;;;;;;;9.38;4.03;;;15.70;66.20;;;;;;5087588;28;20039;-75
2021/05/28 09:32:49;;;;;;;8.05;2.72;;;15.40;66.70;;;;;;5072579;28;20024;-76
2021/05/28 09:35:18;;;;;;;7.00;1.80;;;15.40;66.10;;;;;;5060314;28;20027;-76
2021/05/28 09:37:48;;;;;;;8.88;2.28;;;15.50;67.10;;;;;;5076876;28;20039;-76
2021/05/28 09:40:17;;;;;;;6.95;1.90;;;15.40;66.60;;;;;;5088576;28;20120;-76
2021/05/28 09:42:54;;;;;;;15.23;2.40;;;15.40;66.30;;;;;;5091675;28;20016;-75
2021/05/28 09:45:30;;;;;;;9.80;1.92;;;15.50;66.30;;;;;;5091416;28;20487;-75
2021/05/28 09:48:00;;;;;;;16.90;3.50;;;15.40;66.50;;;;;;5062762;28;20441;-76
2021/05/28 09:50:32;;;;;;;7.20;2.78;;;15.40;66.80;;;;;;5085920;28;20028;-75
2021/05/28 09:53:05;;;;;;;9.07;2.47;;;15.60;66.90;;;;;;5055614;28;20036;-75
2021/05/28 09:55:36;;;;;;;6.20;2.63;;;15.50;66.30;;;;;;5075259;28;20036;-77
2021/05/28 09:58:02;;;;;;;5.28;1.98;;;15.50;66.90;;;;;;5072994;28;20033;-76
2021/05/28 10:00:34;;;;;;;5.25;2.20;;;15.50;67.20;;;;;;5073418;28;20364;-76
2021/05/28 10:03:12;;;;;;;10.65;2.35;;;15.40;67.30;;;;;;5073112;28;20460;-76
2021/05/28 10:05:43;;;;;;;5.43;2.15;;;15.50;68.70;;;;;;5075976;28;20466;-75
2021/05/28 10:08:12;;;;;;;9.68;2.70;;;15.50;67.30;;;;;;5072474;28;20024;-76
2021/05/28 10:10:41;;;;;;;10.10;2.70;;;15.50;67.80;;;;;;5089782;28;20028;-75
2021/05/28 10:13:11;;;;;;;6.13;2.22;;;15.40;68.30;;;;;;5078474;28;20356;-76
2021/05/28 10:15:43;;;;;;;11.23;2.13;;;15.30;68.20;;;;;;5064528;28;20059;-76
2021/05/28 10:18:10;;;;;;;10.73;2.67;;;15.20;68.00;;;;;;5075911;28;20039;-76
2021/05/28 10:20:38;;;;;;;8.75;2.47;;;15.20;68.70;;;;;;5081705;28;20024;-76
2021/05/28 10:23:09;;;;;;;11.60;4.75;;;15.10;68.00;;;;;;5071986;28;20051;-76
2021/05/28 10:25:37;;;;;;;5.28;3.50;;;15.20;69.20;;;;;;5073560;28;20025;-76
2021/05/28 10:28:07;;;;;;;12.13;2.55;;;15.30;69.10;;;;;;5076979;28;20450;-76
2021/05/28 10:30:42;;;;;;;4.25;2.03;;;15.00;68.60;;;;;;5084441;28;20020;-76
2021/05/28 10:33:17;;;;;;;6.30;2.45;;;15.00;68.90;;;;;;5089865;28;20032;-76
2021/05/28 10:35:46;;;;;;;6.45;2.85;;;14.90;69.30;;;;;;5072862;28;20028;-76
2021/05/28 10:38:34;;;;;;;7.68;2.42;;;15.00;69.90;;;;;;5073212;28;20051;-76
2021/05/28 10:41:00;;;;;;;9.68;2.72;;;15.00;69.30;;;;;;5075453;28;20028;-75
2021/05/28 10:43:28;;;;;;;9.23;2.10;;;14.90;69.90;;;;;;5076254;28;20013;-76
2021/05/28 10:45:56;;;;;;;7.00;3.00;;;14.90;69.70;;;;;;5083303;28;20497;-76
2021/05/28 10:48:38;;;;;;;9.98;2.85;;;14.90;69.90;;;;;;5082850;28;20029;-76
2021/05/28 10:51:07;;;;;;;3.05;2.40;;;14.90;69.60;;;;;;5082588;28;20093;-76
2021/05/28 10:53:37;;;;;;;11.30;2.55;;;15.00;69.50;;;;;;5092137;28;20439;-76
2021/05/28 10:56:13;;;;;;;12.07;2.83;;;14.70;69.90;;;;;;5089345;28;20460;-76
2021/05/28 10:58:53;;;;;;;3.50;2.30;;;14.70;69.90;;;;;;5075829;28;20101;-76
2021/05/28 11:01:35;;;;;;;5.50;1.83;;;14.90;69.90;;;;;;5075262;28;20082;-75
2021/05/28 11:04:12;;;;;;;4.45;2.25;;;15.00;70.20;;;;;;5083932;28;20040;-76
2021/05/28 11:07:00;;;;;;;14.63;2.95;;;14.90;69.80;;;;;;5086393;28;20089;-76
2021/05/28 11:09:49;;;;;;;5.15;2.28;;;14.90;69.80;;;;;;5094535;28;20026;-75
2021/05/28 11:12:36;;;;;;;4.60;2.10;;;14.90;69.70;;;;;;5078929;28;20075;-76
2021/05/28 11:15:09;;;;;;;9.27;2.97;;;14.90;69.60;;;;;;5070558;28;20086;-76
2021/05/28 11:17:54;;;;;;;2.22;1.98;;;14.90;69.90;;;;;;5058704;28;20111;-75
2021/05/28 11:20:26;;;;;;;4.93;2.08;;;14.80;69.90;;;;;;5092226;28;20024;-76
2021/05/28 11:22:53;;;;;;;3.35;1.98;;;14.90;70.30;;;;;;5085923;28;20367;-75
2021/05/28 11:25:22;;;;;;;4.93;2.15;;;14.90;70.20;;;;;;5074035;28;20028;-76
2021/05/28 11:28:03;;;;;;;7.05;2.83;;;14.90;69.90;;;;;;5066745;28;20035;-76
2021/05/28 11:30:46;;;;;;;5.85;2.17;;;14.80;70.00;;;;;;5081602;28;20475;-75
2021/05/28 11:33:40;;;;;;;7.80;2.28;;;14.90;70.40;;;;;;5074610;28;20447;-75
2021/05/28 11:36:33;;;;;;;6.50;2.63;;;14.70;70.50;;;;;;5076584;28;20039;-76
2021/05/28 11:39:08;;;;;;;9.23;1.90;;;14.80;70.60;;;;;;5072711;28;20760;-76
2021/05/28 11:41:57;;;;;;;4.22;2.03;;;14.70;70.80;;;;;;5075256;28;20023;-76
2021/05/28 11:44:25;;;;;;;9.55;2.30;;;14.50;70.70;;;;;;5067672;28;20396;-76
2021/05/28 11:46:52;;;;;;;5.78;2.08;;;14.60;70.80;;;;;;5064964;28;20089;-75
2021/05/28 11:49:20;;;;;;;11.52;2.60;;;14.70;70.50;;;;;;5064197;28;20027;-76
2021/05/28 11:52:01;;;;;;;6.88;2.38;;;14.50;70.50;;;;;;5077636;28;20078;-75
2021/05/28 11:54:30;;;;;;;2.50;1.90;;;14.70;70.20;;;;;;5076983;28;20117;-76
2021/05/28 11:57:13;;;;;;;15.30;4.00;;;14.50;70.10;;;;;;5074655;28;20024;-75
2021/05/28 11:59:54;;;;;;;2.83;1.65;;;14.40;71.40;;;;;;5057288;28;20090;-76
2021/05/28 12:02:44;;;;;;;3.40;2.00;;;14.50;70.70;;;;;;5075348;28;20456;-75
2021/05/28 12:05:22;;;;;;;3.38;2.80;;;14.60;70.50;;;;;;5089923;28;20463;-76
2021/05/28 12:07:50;;;;;;;6.25;2.20;;;14.50;70.10;;;;;;5073416;28;20051;-75
2021/05/28 12:10:17;;;;;;;6.28;2.00;;;14.50;70.40;;;;;;5089538;28;20028;-76
2021/05/28 12:12:58;;;;;;;7.20;1.92;;;14.70;70.20;;;;;;5074501;28;20024;-75
2021/05/28 12:15:30;;;;;;;13.68;2.13;;;14.70;70.10;;;;;;5060595;28;20037;-75
2021/05/28 12:17:57;;;;;;;;;;;14.60;69.80;;;;;;5057397;28;20483;-76
2021/05/28 12:20:26;;;;;;;13.07;2.67;;;14.80;70.20;;;;;;5073414;28;19919;-75
2021/05/28 12:23:22;;;;;;;5.53;2.08;;;14.50;70.60;;;;;;5069696;28;20471;-76
2021/05/28 12:25:53;;;;;;;5.15;1.90;;;14.60;70.60;;;;;;5088278;28;20115;-76
2021/05/28 12:28:34;;;;;;;7.18;2.22;;;14.50;70.40;;;;;;5070460;28;20058;-75
2021/05/28 12:31:10;;;;;;;8.32;1.85;;;14.50;70.70;;;;;;5078193;28;20029;-76
2021/05/28 12:33:39;;;;;;;5.68;1.90;;;14.60;70.50;;;;;;5064067;28;20025;-75
2021/05/28 12:36:14;;;;;;;2.80;1.90;;;14.50;70.50;;;;;;5086219;28;20028;-76
2021/05/28 12:38:45;;;;;;;3.58;2.13;;;14.40;70.40;;;;;;5085914;28;20057;-76
2021/05/28 12:41:15;;;;;;;11.20;1.92;;;14.50;70.10;;;;;;5079793;28;20032;-75
2021/05/28 12:43:43;;;;;;;1.83;1.67;;;14.40;70.30;;;;;;5089101;28;20025;-76
2021/05/28 12:46:21;;;;;;;4.82;1.70;;;14.50;69.80;;;;;;5081430;28;20491;-75
2021/05/28 12:48:56;;;;;;;6.68;2.38;;;14.50;70.50;;;;;;5087230;28;20024;-76
2021/05/28 12:51:34;;;;;;;1.65;1.52;;;14.30;70.10;;;;;;5093659;28;20035;-75
2021/05/28 12:54:20;;;;;;;1.70;1.60;;;14.40;70.40;;;;;;5083645;28;20485;-76
2021/05/28 12:56:47;;;;;;;3.45;1.23;;;14.40;70.40;;;;;;5060665;28;20365;-75